createdAt,value
2023-05-10T00:00:41.214Z,72.87
2023-05-10T00:03:08.200Z,73.23
2023-05-10T00:05:35.071Z,72.68
2023-05-10T00:08:01.896Z,73.67
2023-05-10T00:10:28.652Z,73.51
2023-05-10T00:12:55.681Z,71.94
2023-05-10T00:15:22.659Z,72.57
2023-05-10T00:17:49.702Z,72.87
2023-05-10T00:20:17.021Z,73.67
2023-05-10T00:22:44.016Z,73.50
2023-05-10T00:25:11.645Z,73.67
2023-05-10T00:27:38.444Z,75.01
2023-05-10T00:30:06.203Z,74.05
2023-05-10T00:32:33.094Z,74.66
2023-05-10T00:34:59.976Z,72.52
2023-05-10T00:37:27.645Z,73.11
2023-05-10T00:39:55.354Z,73.19
2023-05-10T00:42:23.310Z,73.49
2023-05-10T00:44:52.377Z,73.33
2023-05-10T00:47:19.417Z,74.39
2023-05-10T00:49:47.073Z,72.96
2023-05-10T00:52:14.386Z,73.22
2023-05-10T00:54:41.800Z,72.93
2023-05-10T00:57:08.959Z,72.47
2023-05-10T00:59:36.052Z,73.80
2023-05-10T01:02:03.283Z,73.66
2023-05-10T01:04:31.659Z,73.02
2023-05-10T01:06:58.833Z,74.22
2023-05-10T01:09:27.454Z,73.01
2023-05-10T01:11:55.562Z,74.31
2023-05-10T01:14:23.196Z,73.72
2023-05-10T01:16:51.222Z,73.08
2023-05-10T01:19:23.409Z,72.89
2023-05-10T01:21:54.307Z,72.68
2023-05-10T01:24:36.175Z,72.64
2023-05-10T01:27:18.285Z,72.15
2023-05-10T01:30:09.129Z,73.35
2023-05-10T01:33:07.208Z,72.27
2023-05-10T01:35:55.955Z,72.72
2023-05-10T01:38:47.231Z,73.27
2023-05-10T01:41:29.447Z,72.57
2023-05-10T01:44:04.696Z,71.91
2023-05-10T01:46:38.536Z,72.90
2023-05-10T01:49:13.098Z,72.95
2023-05-10T01:51:49.970Z,73.75
2023-05-10T01:54:20.431Z,74.24
2023-05-10T01:56:56.220Z,72.85
2023-05-10T01:59:25.092Z,73.56
2023-05-10T02:01:55.327Z,73.33
2023-05-10T02:04:24.719Z,73.21
2023-05-10T02:06:54.004Z,74.13
2023-05-10T02:09:22.848Z,72.90
2023-05-10T02:11:51.459Z,73.21
2023-05-10T02:14:20.042Z,72.62
2023-05-10T02:16:48.396Z,72.97
2023-05-10T02:19:16.591Z,72.51
2023-05-10T02:21:45.612Z,73.60
2023-05-10T02:24:12.888Z,73.11
2023-05-10T02:26:41.375Z,73.04
2023-05-10T02:29:09.650Z,73.71
2023-05-10T02:31:37.094Z,71.95
2023-05-10T02:34:07.017Z,72.65
2023-05-10T02:36:34.505Z,73.96
2023-05-10T02:39:03.013Z,72.72
2023-05-10T02:41:33.552Z,72.50
2023-05-10T02:44:03.990Z,72.59
2023-05-10T02:46:31.653Z,72.79
2023-05-10T02:48:58.868Z,72.98
2023-05-10T02:51:32.687Z,74.05
2023-05-10T02:54:05.067Z,73.59
2023-05-10T02:56:36.845Z,73.63
2023-05-10T02:59:03.691Z,71.91
2023-05-10T03:01:30.655Z,73.30
2023-05-10T03:03:58.740Z,72.12
2023-05-10T03:06:25.835Z,73.11
2023-05-10T03:08:52.631Z,73.99
2023-05-10T03:11:48.521Z,74.47
2023-05-10T03:14:54.028Z,74.11
2023-05-10T03:17:30.764Z,73.50
2023-05-10T03:20:04.135Z,73.39
2023-05-10T03:22:37.850Z,71.09
2023-05-10T03:25:07.668Z,71.44
2023-05-10T03:27:37.589Z,71.70
2023-05-10T03:30:08.245Z,72.62
2023-05-10T03:32:35.915Z,71.99
2023-05-10T03:35:10.846Z,71.61
2023-05-10T03:37:38.177Z,72.23
2023-05-10T03:40:06.754Z,69.95
2023-05-10T03:42:36.145Z,71.49
2023-05-10T03:45:03.124Z,70.31
2023-05-10T03:47:30.909Z,69.65
2023-05-10T03:49:58.833Z,69.49
2023-05-10T03:52:26.370Z,70.42
2023-05-10T03:54:53.322Z,70.29
2023-05-10T03:57:20.307Z,70.25
2023-05-10T03:59:47.356Z,70.28
2023-05-10T04:02:14.262Z,69.57
2023-05-10T04:04:41.248Z,70.00
2023-05-10T04:07:08.188Z,70.27
2023-05-10T04:09:35.042Z,70.10
2023-05-10T04:12:03.448Z,70.77
2023-05-10T04:14:30.343Z,70.40
2023-05-10T04:16:57.181Z,70.02
2023-05-10T04:19:24.392Z,69.24
2023-05-10T04:21:51.266Z,70.57
2023-05-10T04:24:18.137Z,70.94
2023-05-10T04:26:44.976Z,70.98
2023-05-10T04:29:11.802Z,70.65
2023-05-10T04:31:38.909Z,71.11
2023-05-10T04:34:06.141Z,71.53
2023-05-10T04:36:34.931Z,71.80
2023-05-10T04:39:01.981Z,70.89
2023-05-10T04:41:30.409Z,71.29
2023-05-10T04:43:57.649Z,71.59
2023-05-10T04:46:24.548Z,70.68
2023-05-10T04:48:51.486Z,70.05
2023-05-10T04:51:18.322Z,70.78
2023-05-10T04:53:51.158Z,70.07
2023-05-10T04:56:24.564Z,68.43
2023-05-10T04:58:51.359Z,69.59
2023-05-10T05:01:18.429Z,68.46
2023-05-10T05:03:45.365Z,68.03
2023-05-10T05:06:12.202Z,68.65
2023-05-10T05:08:39.063Z,67.33
2023-05-10T05:11:05.994Z,66.95
2023-05-10T05:13:33.147Z,68.47
2023-05-10T05:16:02.403Z,66.86
2023-05-10T05:18:29.579Z,64.52
2023-05-10T05:20:56.458Z,64.58
2023-05-10T05:23:25.873Z,63.93
2023-05-10T05:25:53.734Z,64.11
2023-05-10T05:28:21.488Z,63.34
2023-05-10T05:30:48.414Z,62.67
2023-05-10T05:33:16.506Z,62.35
2023-05-10T05:35:48.603Z,62.57
2023-05-10T05:38:15.470Z,62.28
2023-05-10T05:40:42.330Z,61.63
2023-05-10T05:43:09.374Z,60.57
2023-05-10T05:45:36.205Z,61.15
2023-05-10T05:48:03.144Z,61.93
2023-05-10T05:50:30.016Z,60.75
2023-05-10T05:52:57.614Z,62.17
2023-05-10T05:55:25.390Z,64.29
2023-05-10T05:57:52.538Z,61.97
2023-05-10T06:00:19.494Z,60.11
2023-05-10T06:02:46.471Z,60.70
2023-05-10T06:05:15.273Z,60.65
2023-05-10T06:07:43.369Z,61.85
2023-05-10T06:10:10.845Z,59.06
2023-05-10T06:12:37.784Z,60.62
2023-05-10T06:15:05.062Z,58.57
2023-05-10T06:17:32.075Z,59.24
2023-05-10T06:19:58.875Z,59.60
2023-05-10T06:22:25.989Z,58.58
2023-05-10T06:24:52.825Z,59.06
2023-05-10T06:27:19.693Z,58.45
2023-05-10T06:29:46.566Z,59.67
2023-05-10T06:32:13.442Z,59.91
2023-05-10T06:34:40.535Z,59.87
2023-05-10T06:37:07.384Z,60.20
2023-05-10T06:39:34.279Z,60.04
2023-05-10T06:42:02.806Z,59.48
2023-05-10T06:44:33.042Z,60.76
2023-05-10T06:47:00.056Z,60.55
2023-05-10T06:49:26.971Z,60.80
2023-05-10T06:51:53.781Z,59.47
2023-05-10T06:54:20.640Z,58.78
2023-05-10T06:56:47.506Z,58.39
2023-05-10T06:59:14.801Z,59.02
2023-05-10T07:01:41.847Z,57.58
2023-05-10T07:04:08.931Z,60.13
2023-05-10T07:06:35.816Z,58.52
2023-05-10T07:09:02.962Z,58.46
2023-05-10T07:11:29.828Z,60.08
2023-05-10T07:13:56.673Z,59.08
2023-05-10T07:16:23.657Z,57.11
2023-05-10T07:18:51.711Z,55.74
2023-05-10T07:21:18.713Z,56.54
2023-05-10T07:23:45.679Z,56.18
2023-05-10T07:26:12.754Z,56.49
2023-05-10T07:28:40.157Z,56.56
2023-05-10T07:31:07.086Z,57.01
2023-05-10T07:33:34.049Z,57.14
2023-05-10T07:36:00.898Z,56.03
2023-05-10T07:38:27.906Z,57.31
2023-05-10T07:40:54.777Z,55.60
2023-05-10T07:43:21.615Z,54.93
2023-05-10T07:45:48.484Z,54.62
2023-05-10T07:48:15.368Z,55.33
2023-05-10T07:50:42.249Z,55.75
2023-05-10T07:53:09.107Z,54.79
2023-05-10T07:55:36.479Z,54.90
2023-05-10T07:58:03.759Z,55.51
2023-05-10T08:00:30.797Z,53.78
2023-05-10T08:02:57.846Z,53.71
2023-05-10T08:05:24.841Z,55.27
2023-05-10T08:07:51.736Z,55.85
2023-05-10T08:10:18.637Z,54.73
2023-05-10T08:12:45.716Z,55.88
2023-05-10T08:15:12.662Z,54.79
2023-05-10T08:17:39.518Z,52.64
2023-05-10T08:20:07.063Z,52.78
2023-05-10T08:22:33.857Z,53.22
2023-05-10T08:25:00.774Z,52.56
2023-05-10T08:27:27.649Z,53.17
2023-05-10T08:29:54.478Z,52.90
2023-05-10T08:32:21.353Z,53.48
2023-05-10T08:34:48.218Z,53.41
2023-05-10T08:37:15.230Z,52.31
2023-05-10T08:39:42.161Z,52.68
2023-05-10T08:42:10.381Z,52.97
2023-05-10T08:44:38.051Z,53.88
2023-05-10T08:47:10.306Z,51.66
2023-05-10T08:49:38.684Z,53.46
2023-05-10T08:52:07.061Z,51.28
2023-05-10T08:54:35.022Z,51.21
2023-05-10T08:57:02.110Z,49.50
2023-05-10T08:59:29.629Z,50.51
2023-05-10T09:01:59.489Z,50.74
2023-05-10T09:04:27.173Z,50.11
2023-05-10T09:06:54.548Z,50.13
2023-05-10T09:09:22.829Z,51.23
2023-05-10T09:11:50.181Z,49.98
2023-05-10T09:14:18.450Z,50.86
2023-05-10T09:16:45.885Z,51.41
2023-05-10T09:19:12.887Z,50.91
2023-05-10T09:21:39.757Z,50.26
2023-05-10T09:24:07.881Z,50.05
2023-05-10T09:26:36.674Z,50.99
2023-05-10T09:29:04.281Z,49.92
2023-05-10T09:31:57.489Z,50.66
2023-05-10T09:34:32.163Z,49.71
2023-05-10T09:37:07.523Z,52.32
2023-05-10T09:39:36.223Z,50.47
2023-05-10T09:42:06.026Z,49.66
2023-05-10T09:44:34.416Z,50.58
2023-05-10T09:47:04.500Z,49.35
2023-05-10T09:49:31.786Z,49.73
2023-05-10T09:52:09.086Z,49.40
2023-05-10T09:54:37.135Z,50.28
2023-05-10T09:57:04.425Z,51.00
2023-05-10T09:59:34.159Z,49.28
2023-05-10T10:02:01.612Z,49.33
2023-05-10T10:04:30.016Z,49.64
2023-05-10T10:07:05.239Z,48.81
2023-05-10T10:09:33.818Z,48.63
2023-05-10T10:12:05.681Z,47.50
2023-05-10T10:14:32.811Z,47.73
2023-05-10T10:19:36.887Z,47.30
2023-05-10T10:22:04.334Z,45.80
2023-05-10T10:24:31.272Z,45.28
2023-05-10T10:27:05.703Z,47.21
2023-05-10T10:29:53.758Z,45.27
2023-05-10T10:32:34.539Z,45.96
2023-05-10T10:35:01.788Z,46.35
2023-05-10T10:37:51.260Z,47.96
2023-05-10T10:40:36.168Z,43.73
2023-05-10T10:43:22.813Z,43.14
2023-05-10T10:46:15.515Z,44.50
2023-05-10T10:48:48.063Z,44.85
2023-05-10T10:51:15.550Z,44.55
2023-05-10T10:53:42.562Z,44.36
2023-05-10T10:56:16.241Z,46.12
2023-05-10T10:58:52.241Z,44.53
2023-05-10T11:01:19.958Z,44.96
2023-05-10T11:04:01.880Z,45.85
2023-05-10T11:06:33.512Z,44.67
2023-05-10T11:09:10.309Z,45.21
2023-05-10T11:11:49.305Z,46.47
2023-05-10T11:14:22.442Z,44.82
2023-05-10T11:16:49.446Z,45.53
2023-05-10T11:19:17.935Z,44.53
2023-05-10T11:21:52.924Z,45.39
2023-05-10T11:24:24.016Z,45.61
2023-05-10T11:26:54.994Z,45.16
2023-05-10T11:29:21.941Z,45.06
2023-05-10T11:31:50.075Z,46.12
2023-05-10T11:34:31.472Z,45.06
2023-05-10T11:36:59.090Z,46.91
2023-05-10T11:39:30.693Z,46.86
2023-05-10T11:41:58.650Z,47.99
2023-05-10T11:44:31.719Z,47.69
2023-05-10T11:47:02.727Z,47.72
2023-05-10T11:49:30.003Z,48.52
2023-05-10T11:52:14.921Z,47.30
2023-05-10T11:54:55.888Z,46.56
2023-05-10T11:57:28.016Z,46.09
2023-05-10T11:59:56.256Z,46.50
2023-05-10T12:02:23.577Z,43.77
2023-05-10T12:04:51.934Z,43.54
2023-05-10T12:07:18.963Z,43.47
2023-05-10T12:09:46.239Z,41.32
2023-05-10T12:12:19.269Z,43.33
2023-05-10T12:14:51.405Z,44.18
2023-05-10T12:17:18.236Z,45.08
2023-05-10T12:19:45.044Z,44.20
2023-05-10T12:22:11.952Z,44.06
2023-05-10T12:24:41.600Z,43.66
2023-05-10T12:27:11.317Z,44.54
2023-05-10T12:29:44.867Z,44.73
2023-05-10T12:32:11.788Z,44.19
2023-05-10T12:34:39.692Z,42.83
2023-05-10T12:37:06.609Z,44.56
2023-05-10T12:39:44.421Z,44.41
2023-05-10T12:42:11.705Z,43.92
2023-05-10T12:44:38.572Z,45.44
2023-05-10T12:47:05.482Z,44.41
2023-05-10T12:49:32.643Z,44.30
2023-05-10T12:51:59.593Z,45.62
2023-05-10T12:54:26.324Z,45.03
2023-05-10T12:56:53.156Z,46.53
2023-05-10T12:59:20.007Z,47.16
2023-05-10T13:01:46.837Z,48.04
2023-05-10T13:04:13.874Z,47.77
2023-05-10T13:06:40.770Z,47.16
2023-05-10T13:09:08.062Z,47.53
2023-05-10T13:11:34.953Z,46.09
2023-05-10T13:14:01.816Z,46.43
2023-05-10T13:16:28.656Z,45.77
2023-05-10T13:18:55.550Z,46.72
2023-05-10T13:21:22.379Z,46.33
2023-05-10T13:23:49.259Z,45.09
2023-05-10T13:26:16.134Z,45.97
2023-05-10T13:28:43.034Z,46.61
2023-05-10T13:31:10.013Z,45.98
2023-05-10T13:33:36.881Z,44.89
2023-05-10T13:36:03.905Z,46.16
2023-05-10T13:38:30.811Z,44.54
2023-05-10T13:40:57.648Z,44.73
2023-05-10T13:43:25.111Z,46.03
2023-05-10T13:45:52.010Z,45.76
2023-05-10T13:48:18.811Z,44.67
2023-05-10T13:50:45.994Z,46.21
2023-05-10T13:53:13.774Z,47.40
2023-05-10T13:56:36.912Z,47.17
2023-05-10T13:59:04.969Z,46.34
2023-05-10T14:01:32.218Z,44.93
2023-05-10T14:03:59.575Z,46.70
2023-05-10T14:06:26.502Z,47.32
2023-05-10T14:08:53.421Z,48.44
2023-05-10T14:11:22.591Z,49.83
2023-05-10T14:13:50.697Z,49.38
2023-05-10T14:16:17.661Z,49.53
2023-05-10T14:18:44.508Z,49.82
2023-05-10T14:21:11.371Z,49.77
2023-05-10T14:23:38.250Z,49.30
2023-05-10T14:26:05.339Z,49.70
2023-05-10T14:28:32.491Z,49.12
2023-05-10T14:31:00.101Z,48.57
2023-05-10T14:33:27.021Z,48.07
2023-05-10T14:35:55.973Z,47.22
2023-05-10T14:38:22.744Z,47.65
2023-05-10T14:40:49.575Z,48.56
2023-05-10T14:43:16.358Z,50.02
2023-05-10T14:45:43.191Z,49.64
2023-05-10T14:48:13.285Z,50.63
2023-05-10T14:50:40.628Z,49.19
2023-05-10T14:53:38.308Z,48.88
2023-05-10T14:56:05.271Z,48.43
2023-05-10T14:58:33.973Z,48.58
2023-05-10T15:01:01.864Z,48.43
2023-05-10T15:03:29.720Z,49.20
2023-05-10T15:05:58.719Z,49.41
2023-05-10T15:08:28.861Z,50.11
2023-05-10T15:10:56.967Z,50.56
2023-05-10T15:13:23.890Z,50.58
2023-05-10T15:15:50.973Z,50.92
2023-05-10T15:18:18.024Z,51.36
2023-05-10T15:20:44.890Z,50.88
2023-05-10T15:23:11.740Z,51.93
2023-05-10T15:25:38.622Z,53.13
2023-05-10T15:28:06.082Z,53.57
2023-05-10T15:30:32.983Z,53.68
2023-05-10T15:33:00.143Z,53.25
2023-05-10T15:35:28.059Z,52.96
2023-05-10T15:37:54.878Z,53.73
2023-05-10T15:40:21.947Z,54.30
2023-05-10T15:42:48.789Z,54.29
2023-05-10T15:45:16.592Z,53.99
2023-05-10T15:47:45.258Z,54.58
2023-05-10T15:50:12.948Z,54.42
2023-05-10T15:52:39.853Z,54.90
2023-05-10T15:55:13.091Z,55.63
2023-05-10T15:57:42.581Z,54.86
2023-05-10T16:00:11.760Z,55.61
2023-05-10T16:02:41.756Z,55.92
2023-05-10T16:05:10.004Z,55.36
2023-05-10T16:07:36.942Z,55.21
2023-05-10T16:10:06.631Z,56.27
2023-05-10T16:12:33.649Z,56.32
2023-05-10T16:15:00.453Z,55.90
2023-05-10T16:17:27.397Z,56.21
2023-05-10T16:19:54.336Z,56.13
2023-05-10T16:22:22.484Z,55.11
2023-05-10T16:24:49.301Z,56.24
2023-05-10T16:27:16.425Z,55.53
2023-05-10T16:29:43.197Z,55.77
2023-05-10T16:32:10.019Z,56.64
2023-05-10T16:34:36.920Z,56.81
2023-05-10T16:37:04.091Z,56.14
2023-05-10T16:39:31.037Z,57.53
2023-05-10T16:41:57.806Z,56.90
2023-05-10T16:44:25.918Z,56.94
2023-05-10T16:46:53.305Z,56.39
2023-05-10T16:49:20.389Z,56.49
2023-05-10T16:51:47.146Z,56.65
2023-05-10T16:54:13.961Z,57.16
2023-05-10T16:56:40.947Z,58.02
2023-05-10T16:59:07.718Z,57.28
2023-05-10T17:01:34.754Z,57.18
2023-05-10T17:04:01.697Z,58.73
2023-05-10T17:06:28.619Z,58.87
2023-05-10T17:08:55.458Z,58.37
2023-05-10T17:11:22.392Z,58.47
2023-05-10T17:13:49.302Z,58.16
2023-05-10T17:16:16.232Z,58.09
2023-05-10T17:18:43.428Z,58.29
2023-05-10T17:21:10.296Z,59.38
2023-05-10T17:23:37.356Z,58.08
2023-05-10T17:26:05.486Z,58.50
2023-05-10T17:28:32.670Z,58.26
2023-05-10T17:31:00.114Z,58.77
2023-05-10T17:33:26.918Z,58.89
2023-05-10T17:35:53.962Z,59.55
2023-05-10T17:38:20.802Z,58.84
2023-05-10T17:40:47.609Z,59.46
2023-05-10T17:43:14.405Z,60.26
2023-05-10T17:45:41.247Z,61.69
2023-05-10T17:48:08.213Z,60.90
2023-05-10T17:50:35.491Z,60.85
2023-05-10T17:53:03.022Z,61.22
2023-05-10T17:55:30.873Z,61.57
2023-05-10T17:57:59.672Z,62.27
2023-05-10T18:00:26.786Z,61.96
2023-05-10T18:02:53.742Z,62.42
2023-05-10T18:05:21.032Z,63.84
2023-05-10T18:07:48.154Z,63.96
2023-05-10T18:10:15.001Z,63.60
2023-05-10T18:12:41.790Z,63.27
2023-05-10T18:15:09.161Z,64.10
2023-05-10T18:17:36.120Z,64.76
2023-05-10T18:20:03.380Z,64.87
2023-05-10T18:22:30.214Z,64.30
2023-05-10T18:24:56.973Z,64.37
2023-05-10T18:27:23.922Z,64.83
2023-05-10T18:29:50.723Z,64.80
2023-05-10T18:32:17.734Z,65.06
2023-05-10T18:34:44.544Z,64.56
2023-05-10T18:37:11.735Z,65.62
2023-05-10T18:39:38.562Z,64.97
2023-05-10T18:42:05.928Z,65.37
2023-05-10T18:44:32.833Z,64.98
2023-05-10T18:46:59.810Z,64.93
2023-05-10T18:49:27.626Z,65.04
2023-05-10T18:51:54.555Z,65.30
2023-05-10T18:54:21.502Z,65.77
2023-05-10T18:56:49.923Z,66.17
2023-05-10T18:59:16.840Z,66.17
2023-05-10T19:01:43.753Z,65.81
2023-05-10T19:04:10.820Z,65.92
2023-05-10T19:06:37.753Z,65.52
2023-05-10T19:09:04.727Z,66.03
2023-05-10T19:11:34.133Z,65.54
2023-05-10T19:14:01.869Z,65.73
2023-05-10T19:16:30.072Z,66.21
2023-05-10T19:18:57.208Z,65.71
2023-05-10T19:21:25.817Z,65.60
2023-05-10T19:23:53.613Z,65.41
2023-05-10T19:26:20.450Z,66.45
2023-05-10T19:28:47.398Z,65.72
2023-05-10T19:31:14.412Z,66.13
2023-05-10T19:33:41.325Z,66.30
2023-05-10T19:36:09.262Z,66.23
2023-05-10T19:38:37.549Z,66.47
2023-05-10T19:41:04.898Z,65.55
2023-05-10T19:43:34.562Z,65.47
2023-05-10T19:46:02.701Z,66.41
2023-05-10T19:48:30.672Z,66.76
2023-05-10T19:51:07.573Z,65.90
2023-05-10T19:53:36.227Z,65.51
2023-05-10T19:56:07.075Z,65.74
2023-05-10T19:58:34.433Z,65.65
2023-05-10T20:01:01.693Z,66.17
2023-05-10T20:03:29.144Z,65.80
2023-05-10T20:05:56.114Z,65.24
2023-05-10T20:08:23.034Z,65.83
2023-05-10T20:10:49.872Z,65.64
2023-05-10T20:13:16.712Z,65.68
2023-05-10T20:15:43.951Z,65.84
2023-05-10T20:18:10.821Z,65.30
2023-05-10T20:20:37.794Z,64.61
2023-05-10T20:23:04.711Z,64.66
2023-05-10T20:25:31.691Z,64.29
2023-05-10T20:27:58.464Z,64.53
2023-05-10T20:30:25.328Z,64.14
2023-05-10T20:32:52.272Z,65.30
2023-05-10T20:35:19.175Z,65.10
2023-05-10T20:37:48.371Z,65.35
2023-05-10T20:40:15.809Z,64.41
2023-05-10T20:42:42.772Z,64.27
2023-05-10T20:45:10.384Z,63.88
2023-05-10T20:47:37.278Z,64.40
2023-05-10T20:50:04.866Z,64.34
2023-05-10T20:52:31.768Z,64.14
2023-05-10T20:54:58.613Z,64.42
2023-05-10T20:57:25.625Z,64.68
2023-05-10T20:59:52.762Z,64.70
2023-05-10T21:02:20.053Z,64.52
2023-05-10T21:04:46.978Z,65.66
2023-05-10T21:07:13.830Z,65.18
2023-05-10T21:09:40.810Z,65.48
2023-05-10T21:12:09.123Z,64.25
2023-05-10T21:14:36.069Z,64.83
2023-05-10T21:17:02.902Z,64.18
2023-05-10T21:19:29.699Z,64.91
2023-05-10T21:21:57.691Z,64.73
2023-05-10T21:24:24.641Z,65.26
2023-05-10T21:26:51.580Z,65.20
2023-05-10T21:29:18.382Z,65.31
2023-05-10T21:31:45.212Z,65.20
2023-05-10T21:34:13.977Z,65.97
2023-05-10T21:36:41.018Z,65.87
2023-05-10T21:39:07.864Z,65.18
2023-05-10T21:41:34.786Z,64.57
2023-05-10T21:44:01.822Z,65.54
2023-05-10T21:46:28.686Z,64.74
2023-05-10T21:48:55.676Z,64.45
2023-05-10T21:51:22.587Z,65.05
2023-05-10T21:53:49.422Z,64.98
2023-05-10T21:56:16.262Z,64.60
2023-05-10T21:58:43.078Z,64.88
2023-05-10T22:01:09.950Z,65.25
2023-05-10T22:03:36.800Z,65.24
2023-05-10T22:06:03.856Z,65.49
2023-05-10T22:08:30.805Z,65.65
2023-05-10T22:10:57.695Z,65.80
2023-05-10T22:13:24.501Z,66.37
2023-05-10T22:15:51.872Z,65.67
2023-05-10T22:18:18.858Z,66.02
2023-05-10T22:20:46.651Z,65.99
2023-05-10T22:23:13.819Z,66.35
2023-05-10T22:25:40.767Z,66.98
2023-05-10T22:28:08.695Z,67.20
2023-05-10T22:30:35.565Z,66.83
2023-05-10T22:33:02.440Z,67.34
2023-05-10T22:35:29.292Z,67.42
2023-05-10T22:37:56.410Z,66.80
2023-05-10T22:40:23.289Z,67.02
2023-05-10T22:42:50.259Z,66.37
2023-05-10T22:45:17.393Z,66.67
2023-05-10T22:47:44.368Z,66.61
2023-05-10T22:50:11.956Z,66.68
2023-05-10T22:52:39.560Z,67.00
2023-05-10T22:55:07.273Z,66.42
2023-05-10T22:57:34.527Z,66.63
2023-05-10T23:00:02.143Z,66.61
2023-05-10T23:02:29.441Z,66.90
2023-05-10T23:04:56.485Z,66.63
2023-05-10T23:07:24.088Z,66.34
2023-05-10T23:09:50.996Z,66.15
2023-05-10T23:12:17.939Z,66.00
2023-05-10T23:14:46.644Z,66.74
2023-05-10T23:17:13.770Z,66.66
2023-05-10T23:19:40.641Z,66.89
2023-05-10T23:22:07.858Z,66.70
2023-05-10T23:24:34.861Z,66.54
2023-05-10T23:27:02.547Z,66.62
2023-05-10T23:29:29.650Z,66.28
2023-05-10T23:31:56.652Z,67.32
2023-05-10T23:34:23.552Z,66.81
2023-05-10T23:36:50.458Z,66.85
2023-05-10T23:39:17.488Z,67.82
2023-05-10T23:41:44.923Z,68.15
2023-05-10T23:44:11.742Z,67.87
2023-05-10T23:46:38.667Z,67.81
2023-05-10T23:49:05.473Z,67.84
2023-05-10T23:51:32.996Z,68.86
2023-05-10T23:54:00.281Z,67.76
2023-05-10T23:56:27.309Z,68.00
2023-05-10T23:58:54.062Z,67.71
